WZZ56E ELLX-EDNY
Flight info
| Callsign | WZZ56E |
|---|---|
| Flight time | 0h 48m |
| Altitude | 9000 |
| Route | EXCOS Q763 MAPIG/N0386F230 Q760 TOMPI Z729 BADLI Y163 NATOR T732 GARMO |
| Aircraft | A20N/M-SDE2E3FGHIRWXY/LB1 |
Departure
| Time | 2026-05-08 19:23 |
|---|---|
| Airport | Luxembourg-Findel International Airport (ELLX) |
Arrival
| Time | 2026-05-08 20:11 |
|---|---|
| Airport | Bodensee Airport Friedrichshafen (EDNY) |
| Time | Latitude | Longitude | Altitude | Speed | Heading |
|---|---|---|---|---|---|
| 2026-05-08 18:52 | 49.63342 | 6.21694 | 1222 ft | 0 kts | 328° |
| 2026-05-08 19:12 | 49.63332 | 6.21704 | 1221 ft | 2 kts | 329° |
| 2026-05-08 19:12 | 49.63318 | 6.21716 | 1220 ft | 2 kts | 330° |
| 2026-05-08 19:13 | 49.63306 | 6.21730 | 1219 ft | 2 kts | 302° |
| 2026-05-08 19:13 | 49.63302 | 6.21747 | 1219 ft | 0 kts | 251° |
| 2026-05-08 19:15 | 49.63302 | 6.21746 | 1219 ft | 1 kts | 251° |
| 2026-05-08 19:15 | 49.63281 | 6.21678 | 1218 ft | 14 kts | 244° |
| 2026-05-08 19:16 | 49.63262 | 6.21575 | 1218 ft | 4 kts | 261° |
| 2026-05-08 19:16 | 49.63228 | 6.21525 | 1217 ft | 6 kts | 169° |
| 2026-05-08 19:16 | 49.63207 | 6.21550 | 1215 ft | 0 kts | 146° |
| 2026-05-08 19:17 | 49.63196 | 6.21560 | 1215 ft | 8 kts | 149° |
| 2026-05-08 19:17 | 49.63117 | 6.21626 | 1209 ft | 14 kts | 161° |
| 2026-05-08 19:17 | 49.63047 | 6.21536 | 1205 ft | 16 kts | 251° |
| 2026-05-08 19:17 | 49.62983 | 6.21347 | 1206 ft | 24 kts | 245° |
| 2026-05-08 19:18 | 49.62950 | 6.21231 | 1205 ft | 1 kts | 246° |
| 2026-05-08 19:18 | 49.62931 | 6.21163 | 1206 ft | 12 kts | 248° |
| 2026-05-08 19:18 | 49.62912 | 6.21096 | 1207 ft | 0 kts | 239° |
| 2026-05-08 19:18 | 49.62912 | 6.21095 | 1207 ft | 1 kts | 239° |
| 2026-05-08 19:19 | 49.62890 | 6.21039 | 1207 ft | 11 kts | 242° |
| 2026-05-08 19:19 | 49.62844 | 6.20891 | 1206 ft | 7 kts | 241° |
| 2026-05-08 19:19 | 49.62826 | 6.20837 | 1206 ft | 11 kts | 243° |
| 2026-05-08 19:19 | 49.62812 | 6.20795 | 1206 ft | 6 kts | 244° |
| 2026-05-08 19:20 | 49.62763 | 6.20698 | 1204 ft | 18 kts | 225° |
| 2026-05-08 19:20 | 49.62727 | 6.20652 | 1201 ft | 22 kts | 217° |
| 2026-05-08 19:20 | 49.62626 | 6.20511 | 1195 ft | 0 kts | 226° |
| 2026-05-08 19:21 | 49.62621 | 6.20503 | 1195 ft | 5 kts | 227° |
| 2026-05-08 19:21 | 49.62549 | 6.20471 | 1191 ft | 16 kts | 162° |
| 2026-05-08 19:21 | 49.62452 | 6.20613 | 1189 ft | 23 kts | 95° |
| 2026-05-08 19:22 | 49.62467 | 6.20677 | 1190 ft | 0 kts | 52° |
| 2026-05-08 19:22 | 49.62468 | 6.20678 | 1190 ft | 2 kts | 52° |
| 2026-05-08 19:22 | 49.62573 | 6.20949 | 1196 ft | 64 kts | 61° |
| 2026-05-08 19:22 | 49.62897 | 6.21836 | 1198 ft | 123 kts | 60° |
| 2026-05-08 19:23 | 49.63377 | 6.23144 | 1432 ft | 148 kts | 60° |
| 2026-05-08 19:23 | 49.63898 | 6.24610 | 1877 ft | 164 kts | 60° |
| 2026-05-08 19:23 | 49.64510 | 6.26208 | 2308 ft | 185 kts | 60° |
| 2026-05-08 19:23 | 49.65222 | 6.28058 | 2554 ft | 216 kts | 61° |
| 2026-05-08 19:24 | 49.66019 | 6.30149 | 3157 ft | 235 kts | 60° |
| 2026-05-08 19:24 | 49.66899 | 6.32388 | 3879 ft | 253 kts | 59° |
| 2026-05-08 19:24 | 49.67490 | 6.33975 | 4180 ft | 261 kts | 65° |
| 2026-05-08 19:24 | 49.67890 | 6.36671 | 4011 ft | 259 kts | 93° |
| 2026-05-08 19:25 | 49.67456 | 6.39125 | 4001 ft | 259 kts | 119° |
| 2026-05-08 19:25 | 49.66178 | 6.41196 | 3998 ft | 262 kts | 148° |
| 2026-05-08 19:25 | 49.64499 | 6.42307 | 4002 ft | 262 kts | 159° |
| 2026-05-08 19:25 | 49.62786 | 6.43295 | 3996 ft | 262 kts | 158° |
| 2026-05-08 19:26 | 49.61094 | 6.44344 | 4000 ft | 262 kts | 156° |
| 2026-05-08 19:26 | 49.59422 | 6.45468 | 4000 ft | 262 kts | 154° |
| 2026-05-08 19:26 | 49.57794 | 6.46723 | 3999 ft | 262 kts | 147° |
| 2026-05-08 19:26 | 49.56364 | 6.48443 | 3998 ft | 260 kts | 134° |
| 2026-05-08 19:27 | 49.55149 | 6.50507 | 4000 ft | 260 kts | 130° |
| 2026-05-08 19:27 | 49.53962 | 6.52560 | 4002 ft | 260 kts | 131° |
| 2026-05-08 19:27 | 49.52749 | 6.54627 | 3999 ft | 259 kts | 131° |
| 2026-05-08 19:27 | 49.51536 | 6.56684 | 4011 ft | 259 kts | 131° |
| 2026-05-08 19:28 | 49.50319 | 6.58742 | 4077 ft | 262 kts | 131° |
| 2026-05-08 19:28 | 49.49086 | 6.60827 | 4624 ft | 265 kts | 131° |
| 2026-05-08 19:28 | 49.47845 | 6.62923 | 5754 ft | 264 kts | 132° |
| 2026-05-08 19:28 | 49.46594 | 6.65047 | 6806 ft | 271 kts | 133° |
| 2026-05-08 19:29 | 49.45317 | 6.67204 | 7847 ft | 275 kts | 133° |
| 2026-05-08 19:29 | 49.44014 | 6.69396 | 8870 ft | 280 kts | 133° |
| 2026-05-08 19:29 | 49.42688 | 6.71626 | 9930 ft | 285 kts | 133° |
| 2026-05-08 19:29 | 49.41338 | 6.73894 | 10860 ft | 290 kts | 133° |
| 2026-05-08 19:30 | 49.39968 | 6.76195 | 11802 ft | 294 kts | 134° |
| 2026-05-08 19:30 | 49.38570 | 6.78541 | 12731 ft | 300 kts | 134° |
| 2026-05-08 19:30 | 49.37151 | 6.80921 | 13662 ft | 305 kts | 134° |
| 2026-05-08 19:30 | 49.35726 | 6.83307 | 14497 ft | 309 kts | 134° |
| 2026-05-08 19:31 | 49.34266 | 6.85749 | 15316 ft | 313 kts | 134° |
| 2026-05-08 19:31 | 49.32778 | 6.88235 | 16124 ft | 318 kts | 134° |
| 2026-05-08 19:31 | 49.31272 | 6.90750 | 16934 ft | 322 kts | 134° |
| 2026-05-08 19:31 | 49.29744 | 6.93298 | 17728 ft | 327 kts | 134° |
| 2026-05-08 19:32 | 49.28230 | 6.95822 | 18489 ft | 331 kts | 134° |
| 2026-05-08 19:32 | 49.26633 | 6.98478 | 19207 ft | 335 kts | 134° |
| 2026-05-08 19:32 | 49.25051 | 7.01109 | 19934 ft | 338 kts | 134° |
| 2026-05-08 19:32 | 49.23451 | 7.03766 | 20646 ft | 341 kts | 134° |
| 2026-05-08 19:33 | 49.21829 | 7.06429 | 21353 ft | 345 kts | 134° |
| 2026-05-08 19:33 | 49.20202 | 7.09156 | 22041 ft | 348 kts | 134° |
| 2026-05-08 19:33 | 49.18540 | 7.11951 | 22356 ft | 364 kts | 134° |
| 2026-05-08 19:33 | 49.16785 | 7.14880 | 22529 ft | 382 kts | 134° |
| 2026-05-08 19:34 | 49.14941 | 7.17939 | 22718 ft | 399 kts | 134° |
| 2026-05-08 19:34 | 49.13028 | 7.21100 | 23002 ft | 408 kts | 134° |
| 2026-05-08 19:34 | 49.11098 | 7.24283 | 23073 ft | 407 kts | 134° |
| 2026-05-08 19:34 | 49.09198 | 7.27411 | 23073 ft | 407 kts | 135° |
| 2026-05-08 19:35 | 49.07267 | 7.30583 | 23076 ft | 408 kts | 135° |
| 2026-05-08 19:35 | 49.05338 | 7.33747 | 23074 ft | 408 kts | 135° |
| 2026-05-08 19:35 | 49.03406 | 7.36912 | 23073 ft | 408 kts | 135° |
| 2026-05-08 19:35 | 49.01472 | 7.40075 | 23069 ft | 408 kts | 135° |
| 2026-05-08 19:36 | 48.99537 | 7.43238 | 23070 ft | 408 kts | 135° |
| 2026-05-08 19:36 | 48.97598 | 7.46403 | 23063 ft | 408 kts | 135° |
| 2026-05-08 19:36 | 48.95662 | 7.49559 | 23066 ft | 408 kts | 135° |
| 2026-05-08 19:36 | 48.93725 | 7.52713 | 23066 ft | 408 kts | 135° |
| 2026-05-08 19:37 | 48.91786 | 7.55865 | 23062 ft | 408 kts | 135° |
| 2026-05-08 19:37 | 48.89841 | 7.59023 | 23062 ft | 408 kts | 135° |
| 2026-05-08 19:37 | 48.87904 | 7.62166 | 23062 ft | 408 kts | 135° |
| 2026-05-08 19:37 | 48.85959 | 7.65319 | 23059 ft | 408 kts | 135° |
| 2026-05-08 19:38 | 48.84019 | 7.68458 | 23052 ft | 408 kts | 135° |
| 2026-05-08 19:38 | 48.82072 | 7.71605 | 23053 ft | 408 kts | 135° |
| 2026-05-08 19:38 | 48.80155 | 7.74700 | 23050 ft | 408 kts | 135° |
| 2026-05-08 19:38 | 48.78198 | 7.77855 | 23050 ft | 408 kts | 135° |
| 2026-05-08 19:39 | 48.76332 | 7.80861 | 23050 ft | 408 kts | 135° |
| 2026-05-08 19:39 | 48.74385 | 7.83993 | 23048 ft | 408 kts | 135° |
| 2026-05-08 19:39 | 48.72435 | 7.87125 | 23050 ft | 408 kts | 135° |
| 2026-05-08 19:39 | 48.70486 | 7.90253 | 23044 ft | 408 kts | 135° |
| 2026-05-08 19:40 | 48.68536 | 7.93379 | 23049 ft | 409 kts | 135° |
| 2026-05-08 19:40 | 48.66585 | 7.96503 | 23049 ft | 409 kts | 135° |
| 2026-05-08 19:40 | 48.64623 | 7.99640 | 23042 ft | 408 kts | 135° |
| 2026-05-08 19:40 | 48.62680 | 8.02744 | 22803 ft | 405 kts | 135° |
| 2026-05-08 19:41 | 48.60745 | 8.05831 | 22312 ft | 403 kts | 135° |
| 2026-05-08 19:41 | 48.58824 | 8.08893 | 21711 ft | 400 kts | 135° |
| 2026-05-08 19:41 | 48.56916 | 8.11929 | 21108 ft | 397 kts | 135° |
| 2026-05-08 19:41 | 48.55024 | 8.14937 | 20483 ft | 394 kts | 135° |
| 2026-05-08 19:42 | 48.53140 | 8.17928 | 19884 ft | 391 kts | 135° |
| 2026-05-08 19:42 | 48.51264 | 8.20884 | 19319 ft | 387 kts | 138° |
| 2026-05-08 19:42 | 48.49175 | 8.23302 | 18755 ft | 381 kts | 152° |
| 2026-05-08 19:42 | 48.46734 | 8.24863 | 18158 ft | 375 kts | 167° |
| 2026-05-08 19:43 | 48.44219 | 8.25560 | 17536 ft | 370 kts | 173° |
| 2026-05-08 19:43 | 48.41685 | 8.26154 | 16951 ft | 367 kts | 173° |
| 2026-05-08 19:43 | 48.39177 | 8.26754 | 16386 ft | 364 kts | 173° |
| 2026-05-08 19:43 | 48.36679 | 8.27360 | 15804 ft | 362 kts | 173° |
| 2026-05-08 19:44 | 48.34206 | 8.27960 | 15293 ft | 357 kts | 173° |
| 2026-05-08 19:44 | 48.31773 | 8.28551 | 15107 ft | 355 kts | 173° |
| 2026-05-08 19:44 | 48.29322 | 8.29144 | 15057 ft | 356 kts | 173° |
| 2026-05-08 19:44 | 48.26863 | 8.29738 | 15055 ft | 359 kts | 173° |
| 2026-05-08 19:45 | 48.24397 | 8.30335 | 15056 ft | 358 kts | 173° |
| 2026-05-08 19:45 | 48.21940 | 8.30928 | 15055 ft | 358 kts | 173° |
| 2026-05-08 19:45 | 48.19521 | 8.31820 | 15056 ft | 361 kts | 159° |
| 2026-05-08 19:45 | 48.17392 | 8.33862 | 15054 ft | 367 kts | 139° |
| 2026-05-08 19:46 | 48.15834 | 8.36893 | 15056 ft | 372 kts | 119° |
| 2026-05-08 19:46 | 48.14895 | 8.40529 | 15057 ft | 374 kts | 109° |
| 2026-05-08 19:46 | 48.13431 | 8.47965 | 15057 ft | 374 kts | 108° |
| 2026-05-08 19:47 | 48.12674 | 8.51690 | 15055 ft | 374 kts | 109° |
| 2026-05-08 19:47 | 48.11906 | 8.55309 | 15052 ft | 374 kts | 109° |
| 2026-05-08 19:47 | 48.11100 | 8.59009 | 15052 ft | 374 kts | 109° |
| 2026-05-08 19:47 | 48.10283 | 8.62701 | 15052 ft | 374 kts | 110° |
| 2026-05-08 19:48 | 48.09466 | 8.66379 | 15052 ft | 373 kts | 110° |
| 2026-05-08 19:48 | 48.08643 | 8.70069 | 15053 ft | 374 kts | 110° |
| 2026-05-08 19:48 | 48.07821 | 8.73755 | 15055 ft | 373 kts | 110° |
| 2026-05-08 19:48 | 48.06998 | 8.77435 | 15053 ft | 373 kts | 110° |
| 2026-05-08 19:49 | 48.06131 | 8.81095 | 15049 ft | 372 kts | 115° |
| 2026-05-08 19:49 | 48.04943 | 8.84511 | 15050 ft | 370 kts | 124° |
| 2026-05-08 19:49 | 48.03410 | 8.87599 | 15052 ft | 369 kts | 132° |
| 2026-05-08 19:49 | 48.01749 | 8.90513 | 15050 ft | 368 kts | 132° |
| 2026-05-08 19:50 | 48.00115 | 8.93414 | 15050 ft | 368 kts | 132° |
| 2026-05-08 19:50 | 47.98518 | 8.96403 | 15048 ft | 369 kts | 128° |
| 2026-05-08 19:50 | 47.97014 | 8.99440 | 15047 ft | 369 kts | 128° |
| 2026-05-08 19:50 | 47.95486 | 9.02511 | 15048 ft | 368 kts | 129° |
| 2026-05-08 19:51 | 47.93955 | 9.05579 | 15045 ft | 369 kts | 129° |
| 2026-05-08 19:51 | 47.92419 | 9.08649 | 15045 ft | 368 kts | 129° |
| 2026-05-08 19:51 | 47.90884 | 9.11713 | 15040 ft | 368 kts | 129° |
| 2026-05-08 19:51 | 47.89357 | 9.14757 | 14895 ft | 365 kts | 129° |
| 2026-05-08 19:52 | 47.87865 | 9.17731 | 14727 ft | 349 kts | 129° |
| 2026-05-08 19:52 | 47.86452 | 9.20549 | 14550 ft | 330 kts | 129° |
| 2026-05-08 19:52 | 47.85058 | 9.23153 | 14299 ft | 313 kts | 135° |
| 2026-05-08 19:52 | 47.83504 | 9.25305 | 13759 ft | 307 kts | 145° |
| 2026-05-08 19:53 | 47.81802 | 9.27204 | 13120 ft | 304 kts | 146° |
| 2026-05-08 19:53 | 47.80059 | 9.28920 | 12489 ft | 298 kts | 159° |
| 2026-05-08 19:53 | 47.78062 | 9.29546 | 11830 ft | 291 kts | 184° |
| 2026-05-08 19:53 | 47.76080 | 9.29074 | 11190 ft | 287 kts | 194° |
| 2026-05-08 19:54 | 47.74131 | 9.28464 | 10600 ft | 285 kts | 194° |
| 2026-05-08 19:54 | 47.72193 | 9.27866 | 10012 ft | 284 kts | 193° |
| 2026-05-08 19:54 | 47.70263 | 9.27279 | 9383 ft | 282 kts | 193° |
| 2026-05-08 19:54 | 47.68346 | 9.26700 | 8775 ft | 280 kts | 193° |
| 2026-05-08 19:55 | 47.66443 | 9.26128 | 8176 ft | 278 kts | 192° |
| 2026-05-08 19:55 | 47.64552 | 9.25562 | 7608 ft | 276 kts | 192° |
| 2026-05-08 19:55 | 47.62692 | 9.25116 | 7034 ft | 274 kts | 180° |
| 2026-05-08 19:55 | 47.60853 | 9.25709 | 6451 ft | 271 kts | 153° |
| 2026-05-08 19:56 | 47.59483 | 9.27547 | 5850 ft | 267 kts | 119° |
| 2026-05-08 19:56 | 47.59044 | 9.30166 | 5248 ft | 264 kts | 85° |
| 2026-05-08 19:56 | 47.59631 | 9.32710 | 4664 ft | 263 kts | 60° |
| 2026-05-08 19:56 | 47.60591 | 9.35017 | 4059 ft | 262 kts | 58° |
| 2026-05-08 19:57 | 47.61566 | 9.37292 | 3471 ft | 261 kts | 58° |
| 2026-05-08 19:57 | 47.62518 | 9.39553 | 3038 ft | 254 kts | 58° |
| 2026-05-08 19:57 | 47.63417 | 9.41733 | 2678 ft | 236 kts | 59° |
| 2026-05-08 19:57 | 47.64218 | 9.43711 | 2363 ft | 212 kts | 59° |
| 2026-05-08 19:58 | 47.64922 | 9.45481 | 2146 ft | 184 kts | 59° |
| 2026-05-08 19:58 | 47.65526 | 9.47042 | 1850 ft | 164 kts | 58° |
| 2026-05-08 19:58 | 47.66055 | 9.48399 | 1652 ft | 140 kts | 58° |
| 2026-05-08 19:58 | 47.66584 | 9.49728 | 1437 ft | 173 kts | 58° |
| 2026-05-08 19:59 | 47.67212 | 9.51382 | 1571 ft | 186 kts | 60° |
| 2026-05-08 19:59 | 47.67874 | 9.53051 | 1980 ft | 196 kts | 58° |
| 2026-05-08 19:59 | 47.68577 | 9.54840 | 2411 ft | 206 kts | 59° |
| 2026-05-08 19:59 | 47.69357 | 9.56747 | 2976 ft | 229 kts | 58° |
| 2026-05-08 20:00 | 47.70171 | 9.58644 | 3571 ft | 200 kts | 58° |
| 2026-05-08 20:00 | 47.70946 | 9.60348 | 4108 ft | 207 kts | 56° |
| 2026-05-08 20:00 | 47.71789 | 9.62107 | 4670 ft | 209 kts | 54° |
| 2026-05-08 20:00 | 47.72930 | 9.63459 | 5212 ft | 215 kts | 21° |
| 2026-05-08 20:01 | 47.74435 | 9.63849 | 5523 ft | 227 kts | 6° |
| 2026-05-08 20:01 | 47.76011 | 9.64028 | 5512 ft | 231 kts | 5° |
| 2026-05-08 20:01 | 47.77593 | 9.64025 | 5449 ft | 225 kts | 347° |
| 2026-05-08 20:01 | 47.78949 | 9.62947 | 5229 ft | 224 kts | 314° |
| 2026-05-08 20:02 | 47.79679 | 9.60947 | 5034 ft | 223 kts | 278° |
| 2026-05-08 20:02 | 47.79526 | 9.58644 | 5002 ft | 226 kts | 246° |
| 2026-05-08 20:02 | 47.78892 | 9.56507 | 4998 ft | 225 kts | 245° |
| 2026-05-08 20:02 | 47.78291 | 9.54355 | 5002 ft | 225 kts | 247° |
| 2026-05-08 20:03 | 47.77720 | 9.52183 | 4999 ft | 225 kts | 248° |
| 2026-05-08 20:03 | 47.77161 | 9.50014 | 4999 ft | 225 kts | 246° |
| 2026-05-08 20:03 | 47.76412 | 9.47923 | 5003 ft | 240 kts | 238° |
| 2026-05-08 20:03 | 47.75557 | 9.45742 | 5000 ft | 244 kts | 239° |
| 2026-05-08 20:04 | 47.74726 | 9.43597 | 5000 ft | 243 kts | 239° |
| 2026-05-08 20:04 | 47.73883 | 9.41414 | 5000 ft | 243 kts | 239° |
| 2026-05-08 20:04 | 47.73040 | 9.39238 | 4996 ft | 243 kts | 238° |
| 2026-05-08 20:04 | 47.72185 | 9.37069 | 5001 ft | 243 kts | 238° |
| 2026-05-08 20:05 | 47.71329 | 9.34904 | 5001 ft | 243 kts | 238° |
| 2026-05-08 20:05 | 47.70471 | 9.32740 | 4999 ft | 243 kts | 238° |
| 2026-05-08 20:05 | 47.69609 | 9.30576 | 4999 ft | 244 kts | 238° |
| 2026-05-08 20:05 | 47.68751 | 9.28423 | 4994 ft | 242 kts | 238° |
| 2026-05-08 20:06 | 47.67892 | 9.26271 | 4996 ft | 242 kts | 238° |
| 2026-05-08 20:06 | 47.66844 | 9.24472 | 4995 ft | 240 kts | 212° |
| 2026-05-08 20:06 | 47.65319 | 9.23666 | 4960 ft | 229 kts | 180° |
| 2026-05-08 20:06 | 47.63828 | 9.24154 | 4871 ft | 216 kts | 148° |
| 2026-05-08 20:07 | 47.62735 | 9.25619 | 4633 ft | 212 kts | 122° |
| 2026-05-08 20:07 | 47.62070 | 9.27564 | 4350 ft | 212 kts | 114° |
| 2026-05-08 20:07 | 47.61418 | 9.29514 | 4111 ft | 211 kts | 116° |
| 2026-05-08 20:07 | 47.60744 | 9.31415 | 3997 ft | 208 kts | 117° |
| 2026-05-08 20:08 | 47.60280 | 9.33430 | 4011 ft | 202 kts | 90° |
| 2026-05-08 20:08 | 47.60657 | 9.35343 | 3795 ft | 195 kts | 60° |
| 2026-05-08 20:08 | 47.61389 | 9.37051 | 3458 ft | 197 kts | 57° |
| 2026-05-08 20:08 | 47.62134 | 9.38735 | 3176 ft | 192 kts | 57° |
| 2026-05-08 20:09 | 47.62826 | 9.40338 | 2898 ft | 176 kts | 58° |
| 2026-05-08 20:09 | 47.63443 | 9.41805 | 2667 ft | 160 kts | 58° |
| 2026-05-08 20:09 | 47.64029 | 9.43090 | 2514 ft | 142 kts | 59° |
| 2026-05-08 20:09 | 47.64494 | 9.44362 | 2406 ft | 137 kts | 61° |
| 2026-05-08 20:10 | 47.64933 | 9.45511 | 2224 ft | 125 kts | 60° |
| 2026-05-08 20:10 | 47.65362 | 9.46611 | 1995 ft | 122 kts | 57° |
| 2026-05-08 20:10 | 47.65792 | 9.47711 | 1816 ft | 124 kts | 58° |
| 2026-05-08 20:10 | 47.66218 | 9.48805 | 1590 ft | 119 kts | 58° |
| 2026-05-08 20:11 | 47.66642 | 9.49885 | 1424 ft | 122 kts | 58° |
| 2026-05-08 20:11 | 47.66919 | 9.50610 | 1357 ft | 115 kts | 59° |
| 2026-05-08 20:11 | 47.67188 | 9.51295 | 1364 ft | 35 kts | 59° |
| 2026-05-08 20:11 | 47.67230 | 9.51403 | 1366 ft | 23 kts | 60° |
| 2026-05-08 20:12 | 47.67350 | 9.51712 | 1367 ft | 39 kts | 61° |
| 2026-05-08 20:12 | 47.67485 | 9.52054 | 1371 ft | 34 kts | 60° |
| 2026-05-08 20:12 | 47.67479 | 9.52306 | 1375 ft | 19 kts | 131° |
| 2026-05-08 20:12 | 47.67409 | 9.52333 | 1376 ft | 5 kts | 236° |
| 2026-05-08 20:13 | 47.67381 | 9.52267 | 1374 ft | 10 kts | 238° |
| 2026-05-08 20:13 | 47.67352 | 9.52193 | 1372 ft | 0 kts | 239° |
| 2026-05-08 20:13 | 47.67345 | 9.52179 | 1371 ft | 6 kts | 237° |
| 2026-05-08 20:13 | 47.67321 | 9.52133 | 1373 ft | 4 kts | 204° |
| 2026-05-08 20:14 | 47.67295 | 9.52168 | 1373 ft | 0 kts | 112° |